Lake Isabella, California
Current Conditions -  °F | °C
As of 11:35 AM on Thursday 18 Dec 2014 (Local Time) from KTSP Reporting Station
Overcast Overcast  
Wind Chill: 46°   Ceiling: 3500
Heat Index: 46°   Visibility: 10mi
Dew Point: 36°   Wind: 0mph
Humidity: 66%   Direction: NA
Pressure: 30.17"   Gusts: NA
Location:  35.61°N, 118.49°W
Report Text: KTSP 181935Z AUTO 00000KT 10SM OVC035 08/02 A3017 RMK AO2
Loading
Personal Weather Stations






























Interactive Weather Map New forecast layout! Learn more

10-Day Weather Forecast

Advertisements
Track Severe Weather on mobile